Time;durP1;ratioP1;P1;durP2;ratioP2;P2;SDS_P1;SDS_P2;PMS_P1;PMS_P2;Temp;Humidity;BMP_temperature;BMP_pressure;BME280_temperature;BME280_humidity;BME280_pressure;Samples;Min_cycle;Max_cycle;Signal;HPM_P1;HPM_P2
2022/04/13 00:00:09;;;;;;;6.13;2.15;;;;;;;6.77;42.36;101067.59;5045456;28;20022;-64
2022/04/13 00:02:35;;;;;;;4.28;1.40;;;;;;;6.78;42.44;101065.03;5045025;28;20076;-66
2022/04/13 00:05:00;;;;;;;7.25;1.83;;;;;;;6.71;42.46;101055.44;5044959;28;20037;-64
2022/04/13 00:07:26;;;;;;;2.20;1.17;;;;;;;6.82;42.16;101056.50;5045098;28;20057;-66
2022/04/13 00:09:51;;;;;;;4.82;1.40;;;;;;;6.76;42.39;101065.84;5045052;28;20056;-64
2022/04/13 00:12:16;;;;;;;3.45;1.17;;;;;;;6.97;42.01;101067.94;5045114;28;20045;-65
2022/04/13 00:14:42;;;;;;;2.20;1.35;;;;;;;6.79;42.33;101071.94;5045056;28;20029;-65
2022/04/13 00:17:07;;;;;;;4.43;1.15;;;;;;;6.65;42.57;101082.00;5044973;28;20029;-65
2022/04/13 00:19:33;;;;;;;3.28;1.65;;;;;;;6.72;42.23;101061.47;5044992;28;20034;-65
2022/04/13 00:21:59;;;;;;;3.17;1.23;;;;;;;6.77;42.12;101065.03;5044747;28;20045;-66
2022/04/13 00:24:24;;;;;;;3.25;1.25;;;;;;;6.81;42.04;101048.72;5044837;28;20045;-66
2022/04/13 00:26:50;;;;;;;3.95;1.10;;;;;;;6.72;42.25;101059.78;5044707;28;20021;-66
2022/04/13 00:29:15;;;;;;;3.85;2.17;;;;;;;6.77;42.04;101058.13;5044744;28;20036;-65
2022/04/13 00:31:40;;;;;;;1.65;1.40;;;;;;;6.66;42.00;101063.09;5044426;28;20097;-65
2022/04/13 00:34:06;;;;;;;2.38;1.10;;;;;;;6.61;42.11;101053.53;5044644;28;20078;-65
2022/04/13 00:36:31;;;;;;;3.17;1.10;;;;;;;6.60;42.46;101059.56;5044545;28;20149;-65
2022/04/13 00:38:56;;;;;;;2.05;1.23;;;;;;;6.57;42.47;101050.03;5044674;28;20079;-65
2022/04/13 00:41:22;;;;;;;2.00;0.98;;;;;;;6.57;42.15;101039.72;5044652;28;20021;-67
2022/04/13 00:44:08;;;;;;;1.88;1.20;;;;;;;6.54;42.11;101034.50;5026832;28;20531;-66
2022/04/13 00:46:34;;;;;;;7.10;1.52;;;;;;;6.50;42.37;101050.78;5044539;28;20104;-65
2022/04/13 00:49:00;;;;;;;2.17;1.23;;;;;;;6.41;42.48;101048.88;5044116;28;20516;-65
2022/04/13 00:51:26;;;;;;;2.40;1.20;;;;;;;6.41;42.61;101048.88;5044255;28;20029;-64
2022/04/13 00:53:52;;;;;;;1.50;1.10;;;;;;;6.39;42.34;101033.38;5044339;28;20030;-66
2022/04/13 00:56:23;;;;;;;3.13;1.00;;;;;;;6.29;42.69;101029.72;5045009;28;20270;-67
2022/04/13 00:58:52;;;;;;;2.63;1.05;;;;;;;6.32;42.53;101031.53;5045368;28;20076;-65
2022/04/13 01:01:18;;;;;;;2.47;1.10;;;;;;;6.31;42.55;101028.06;5044322;28;20079;-64
2022/04/13 01:03:44;;;;;;;3.40;1.20;;;;;;;6.22;42.57;101021.84;5044026;28;20326;-66
2022/04/13 01:06:10;;;;;;;4.90;1.30;;;;;;;6.25;42.41;101022.78;5044010;28;20035;-65
2022/04/13 01:08:37;;;;;;;3.40;1.00;;;;;;;6.20;42.59;101020.13;5044544;28;20085;-66
2022/04/13 01:11:03;;;;;;;4.00;2.03;;;;;;;6.22;42.40;101017.56;5026295;28;20021;-63
2022/04/13 01:13:29;;;;;;;1.70;0.75;;;;;;;6.14;42.31;101016.53;5044041;28;20052;-64
2022/04/13 01:15:55;;;;;;;4.32;0.90;;;;;;;6.05;42.47;101025.81;5043254;28;20024;-65
2022/04/13 01:18:21;;;;;;;2.17;1.23;;;;;;;6.02;42.34;101017.16;5043744;28;20036;-65
2022/04/13 01:20:52;;;;;;;2.95;1.33;;;;;;;6.18;41.71;101015.78;5043671;28;20032;-65
2022/04/13 01:23:21;;;;;;;1.80;1.00;;;;;;;6.13;41.83;101010.53;5043743;28;20079;-65
2022/04/13 01:25:51;;;;;;;3.28;1.40;;;;;;;6.15;41.50;101008.84;5043616;28;20043;-64
2022/04/13 01:28:17;;;;;;;3.80;1.30;;;;;;;6.24;41.25;101015.03;5043558;28;20079;-65
2022/04/13 01:30:43;;;;;;;1.70;0.70;;;;;;;6.09;41.41;101006.16;5043411;28;20056;-66
2022/04/13 01:33:08;;;;;;;2.28;0.90;;;;;;;6.07;41.71;101008.69;5043644;28;20030;-66
2022/04/13 01:35:34;;;;;;;1.75;0.90;;;;;;;6.11;41.44;101003.59;5043584;28;20045;-66
2022/04/13 01:37:59;;;;;;;4.70;1.20;;;;;;;6.05;41.24;101000.06;5043706;28;20080;-65
2022/04/13 01:40:25;;;;;;;3.30;2.17;;;;;;;5.90;41.69;101000.59;5043645;28;20021;-65
2022/04/13 01:42:50;;;;;;;2.35;1.45;;;;;;;5.93;41.09;100992.03;5043713;28;20045;-66
2022/04/13 01:45:19;;;;;;;3.83;1.45;;;;;;;5.94;41.08;101007.53;5043630;28;20025;-65
2022/04/13 01:47:49;;;;;;;1.85;1.10;;;;;;;5.90;41.00;100989.41;5043422;28;20017;-66
2022/04/13 01:50:19;;;;;;;1.83;0.90;;;;;;;5.92;40.96;100992.91;5043330;28;20146;-65
2022/04/13 01:52:48;;;;;;;2.00;0.98;;;;;;;5.88;41.05;100991.09;5043449;28;20052;-65
2022/04/13 01:55:14;;;;;;;1.10;1.00;;;;;;;5.90;40.96;100987.72;5043376;28;20040;-65
2022/04/13 01:57:41;;;;;;;1.00;0.85;;;;;;;6.10;40.33;100984.69;5043346;28;20057;-66
2022/04/13 02:00:09;;;;;;;2.05;1.08;;;;;;;5.79;41.08;100987.50;5025666;28;20032;-65
2022/04/13 02:02:35;;;;;;;3.92;0.90;;;;;;;6.10;39.94;100976.97;5043184;28;20385;-66
2022/04/13 02:05:01;;;;;;;2.28;0.88;;;;;;;5.94;40.58;100974.03;5043335;28;20021;-65
2022/04/13 02:07:27;;;;;;;1.35;0.90;;;;;;;5.86;40.94;100982.47;5043236;28;20421;-65
2022/04/13 02:09:56;;;;;;;1.88;0.70;;;;;;;6.12;40.11;100969.25;5043547;28;20036;-66
2022/04/13 02:12:21;;;;;;;2.55;0.77;;;;;;;6.03;40.14;100970.78;5043285;28;20017;-65
2022/04/13 02:14:47;;;;;;;2.95;0.82;;;;;;;5.86;40.46;100964.44;5043033;28;20032;-65
2022/04/13 02:17:16;;;;;;;1.98;0.70;;;;;;;5.86;40.52;100970.47;5043160;28;20026;-65
2022/04/13 02:19:45;;;;;;;1.75;1.02;;;;;;;5.77;40.87;100978.84;5025369;28;20025;-65
2022/04/13 02:22:10;;;;;;;1.77;0.80;;;;;;;5.82;40.75;100966.06;5043368;28;20025;-65
2022/04/13 02:24:37;;;;;;;2.00;1.00;;;;;;;5.70;41.06;100977.84;5043235;28;20025;-65
2022/04/13 02:27:03;;;;;;;1.58;0.93;;;;;;;5.83;40.78;100980.72;5045225;28;20436;-65
2022/04/13 02:29:28;;;;;;;6.00;1.80;;;;;;;5.81;40.86;100972.91;5046750;28;20021;-65
2022/04/13 02:31:54;;;;;;;1.60;0.80;;;;;;;5.84;40.86;100977.28;5046639;28;20064;-65
2022/04/13 02:34:19;;;;;;;3.83;1.17;;;;;;;5.84;41.06;100977.28;5046687;28;20025;-66
2022/04/13 02:36:44;;;;;;;2.25;0.93;;;;;;;5.72;41.35;100977.88;5028741;28;20017;-66
2022/04/13 02:39:10;;;;;;;1.23;0.98;;;;;;;5.74;41.25;100972.75;5046994;28;20547;-66
2022/04/13 02:41:35;;;;;;;1.73;1.05;;;;;;;5.76;41.47;100965.94;5046934;28;20469;-66
2022/04/13 02:44:01;;;;;;;2.08;0.90;;;;;;;5.79;41.30;100964.31;5046777;28;20021;-66
2022/04/13 02:46:26;;;;;;;1.85;0.95;;;;;;;5.83;41.34;100960.09;5046858;28;20025;-66
2022/04/13 02:48:52;;;;;;;4.95;1.20;;;;;;;5.68;41.49;100961.50;5046895;28;20056;-66
2022/04/13 02:51:17;;;;;;;1.50;0.90;;;;;;;5.58;41.84;100956.97;5046554;28;20396;-66
2022/04/13 02:53:43;;;;;;;2.75;0.70;;;;;;;5.61;41.96;100951.91;5028967;28;20044;-65
2022/04/13 02:56:08;;;;;;;3.67;1.00;;;;;;;5.73;42.02;100953.00;5046528;28;20077;-65
2022/04/13 02:58:33;;;;;;;3.75;0.95;;;;;;;5.71;42.19;100945.25;5046422;28;20068;-64
2022/04/13 03:00:59;;;;;;;1.65;1.00;;;;;;;5.58;42.33;100944.09;5028624;28;20376;-65
2022/04/13 03:03:24;;;;;;;3.63;1.00;;;;;;;5.49;42.38;100931.91;5028588;28;20049;-65
2022/04/13 03:05:50;;;;;;;2.38;1.05;;;;;;;5.56;42.62;100933.78;5046271;28;20032;-64
2022/04/13 03:08:15;;;;;;;2.83;1.08;;;;;;;5.52;42.71;100920.81;5046462;28;20041;-65
2022/04/13 03:10:43;;;;;;;2.50;0.70;;;;;;;5.55;42.68;100928.59;5046299;28;20036;-66
2022/04/13 03:13:10;;;;;;;2.03;0.90;;;;;;;5.61;42.79;100915.84;5046299;28;20108;-66
2022/04/13 03:15:36;;;;;;;3.38;1.02;;;;;;;5.55;42.99;100910.56;5046187;28;20021;-65
2022/04/13 03:18:01;;;;;;;1.20;1.00;;;;;;;5.65;42.91;100907.34;5028372;28;20044;-66
2022/04/13 03:20:26;;;;;;;2.22;0.90;;;;;;;5.93;42.72;100900.16;5045795;28;20034;-67
2022/04/13 03:22:52;;;;;;;1.13;0.85;;;;;;;5.91;42.63;100895.81;5046095;28;20028;-66
2022/04/13 03:25:17;;;;;;;2.03;0.80;;;;;;;6.05;42.33;100908.97;5045972;28;20026;-66
2022/04/13 03:27:42;;;;;;;2.28;0.90;;;;;;;5.58;43.45;100915.78;5028111;28;20017;-66
2022/04/13 03:30:12;;;;;;;2.65;1.00;;;;;;;5.59;43.42;100920.09;5028240;28;20017;-65
2022/04/13 03:32:38;;;;;;;2.00;0.93;;;;;;;5.81;43.13;100920.53;5045671;28;20503;-66
2022/04/13 03:35:08;;;;;;;3.40;1.13;;;;;;;5.78;43.13;100926.47;5045820;28;20033;-65
2022/04/13 03:37:34;;;;;;;1.98;1.15;;;;;;;5.82;43.20;100904.22;5045113;28;20032;-66
2022/04/13 03:39:59;;;;;;;1.33;0.90;;;;;;;5.85;43.37;100914.59;5045744;28;20033;-66
2022/04/13 03:42:24;;;;;;;2.40;1.05;;;;;;;5.58;44.08;100913.19;5045695;28;20038;-66
2022/04/13 03:44:50;;;;;;;3.25;1.10;;;;;;;5.46;44.23;100919.81;5045585;28;20027;-65
2022/04/13 03:47:15;;;;;;;3.50;1.35;;;;;;;5.43;44.37;100916.34;5045632;28;20032;-65
2022/04/13 03:49:41;;;;;;;2.13;0.80;;;;;;;5.74;43.82;100918.66;5045438;28;20530;-65
2022/04/13 03:52:07;;;;;;;2.28;0.95;;;;;;;5.63;44.29;100915.88;5045423;28;20350;-65
2022/04/13 03:54:32;;;;;;;3.70;1.00;;;;;;;5.53;44.58;100914.81;5045391;28;20029;-65
2022/04/13 03:56:58;;;;;;;3.33;0.90;;;;;;;5.46;44.60;100906.09;5027308;28;20051;-66
2022/04/13 03:59:23;;;;;;;2.88;1.00;;;;;;;5.48;44.76;100911.28;5045221;28;20032;-66
2022/04/13 04:01:49;;;;;;;3.33;1.05;;;;;;;5.56;44.52;100909.72;5045415;28;20025;-66
2022/04/13 04:04:14;;;;;;;0.82;0.70;;;;;;;5.78;44.42;100912.75;5045161;28;20033;-66
2022/04/13 04:06:39;;;;;;;2.90;1.33;;;;;;;5.52;44.92;100916.53;5044995;28;20470;-67
2022/04/13 04:09:05;;;;;;;3.97;1.25;;;;;;;5.56;45.12;100918.31;5045132;28;20029;-65
2022/04/13 04:11:30;;;;;;;3.67;1.08;;;;;;;5.54;45.51;100917.41;5045060;28;20030;-65
2022/04/13 04:13:55;;;;;;;1.75;0.82;;;;;;;5.77;45.15;100913.56;5045023;28;20029;-65
2022/04/13 04:16:21;;;;;;;2.10;1.20;;;;;;;5.43;46.01;100917.19;5027151;28;20363;-65
2022/04/13 04:18:48;;;;;;;3.65;1.35;;;;;;;5.24;46.77;100910.78;5044884;28;20035;-65
2022/04/13 04:21:15;;;;;;;2.38;1.10;;;;;;;5.22;47.26;100917.63;5044805;28;20025;-65
2022/04/13 04:23:41;;;;;;;1.13;0.75;;;;;;;5.61;46.31;100908.09;5044885;28;20025;-66
2022/04/13 04:26:06;;;;;;;1.23;0.90;;;;;;;5.41;46.86;100903.44;5026989;28;20027;-63
2022/04/13 04:28:32;;;;;;;5.78;0.70;;;;;;;5.53;46.52;100900.22;5044715;28;20017;-64
2022/04/13 04:30:57;;;;;;;2.95;1.20;;;;;;;5.31;47.14;100904.94;5044500;28;20048;-63
2022/04/13 04:33:24;;;;;;;1.40;0.75;;;;;;;5.36;47.09;100888.72;5044718;28;20025;-64
2022/04/13 04:35:51;;;;;;;3.53;1.30;;;;;;;5.14;47.61;100894.28;5044525;28;20036;-66
2022/04/13 04:38:17;;;;;;;2.45;1.30;;;;;;;5.14;47.50;100876.25;5027425;28;20105;-65
2022/04/13 04:40:42;;;;;;;2.58;0.90;;;;;;;5.31;47.08;100875.75;5044608;28;20109;-65
2022/04/13 04:43:08;;;;;;;2.72;1.00;;;;;;;5.24;47.21;100881.59;5044480;28;20245;-67
2022/04/13 04:45:33;;;;;;;2.38;1.27;;;;;;;5.24;47.10;100874.72;5044427;28;20033;-66
2022/04/13 04:48:04;;;;;;;5.22;1.67;;;;;;;5.24;47.35;100876.47;5044554;28;20469;-64
2022/04/13 04:50:30;;;;;;;1.92;0.90;;;;;;;5.25;47.02;100878.19;5043384;28;20210;-63
2022/04/13 04:52:56;;;;;;;1.40;0.90;;;;;;;5.49;46.17;100864.97;5044511;28;20334;-64
2022/04/13 04:55:21;;;;;;;6.60;1.20;;;;;;;5.33;46.47;100889.53;5044311;28;20031;-64
2022/04/13 04:57:47;;;;;;;3.47;1.27;;;;;;;5.41;46.39;100887.97;5044392;28;20032;-63
2022/04/13 05:00:17;;;;;;;3.78;1.27;;;;;;;5.38;46.59;100895.66;5044205;28;20033;-63
2022/04/13 05:02:43;;;;;;;2.70;1.85;;;;;;;5.39;46.57;100887.06;5044460;28;20032;-64
2022/04/13 05:05:09;;;;;;;2.60;1.13;;;;;;;5.32;46.90;100893.78;5044257;28;20031;-64
2022/04/13 05:07:34;;;;;;;3.55;1.58;;;;;;;5.21;47.07;100891.00;5044130;28;20453;-64
2022/04/13 05:10:00;;;;;;;1.98;1.10;;;;;;;5.37;46.91;100887.91;5044110;28;20055;-62
2022/04/13 05:12:26;;;;;;;3.72;1.30;;;;;;;5.31;47.07;100886.91;5043975;28;20087;-63
2022/04/13 05:14:54;;;;;;;2.85;1.00;;;;;;;5.42;47.05;100894.88;5043983;28;20025;-64
2022/04/13 05:17:20;;;;;;;2.63;1.30;;;;;;;5.48;47.01;100898.41;5043899;28;20029;-63
2022/04/13 05:19:45;;;;;;;4.15;1.00;;;;;;;5.46;47.19;100900.97;5044015;28;20547;-62
2022/04/13 05:22:11;;;;;;;3.75;1.52;;;;;;;5.35;47.50;100908.47;5043844;28;20025;-62
2022/04/13 05:24:36;;;;;;;2.05;1.30;;;;;;;5.42;47.65;100907.75;5043756;28;20354;-63
2022/04/13 05:27:02;;;;;;;2.75;1.17;;;;;;;5.28;47.83;100907.44;5043711;28;20009;-63
2022/04/13 05:29:27;;;;;;;3.15;1.40;;;;;;;5.48;47.40;100900.97;5025942;28;20533;-63
2022/04/13 05:31:52;;;;;;;3.08;1.33;;;;;;;5.45;47.59;100912.06;5043696;28;20056;-63
2022/04/13 05:34:18;;;;;;;4.95;1.23;;;;;;;5.30;47.73;100903.19;5043547;28;20162;-64
2022/04/13 05:36:43;;;;;;;3.67;1.60;;;;;;;5.37;47.69;100904.19;5043089;28;20105;-63
2022/04/13 05:39:08;;;;;;;2.97;1.33;;;;;;;5.35;47.83;100908.47;5043710;28;20108;-64
2022/04/13 05:41:35;;;;;;;3.08;1.10;;;;;;;5.41;47.52;100908.59;5043729;28;20017;-63
2022/04/13 05:44:00;;;;;;;3.72;1.30;;;;;;;5.46;47.48;100909.53;5043296;28;20026;-63
2022/04/13 05:46:26;;;;;;;2.30;1.00;;;;;;;5.81;46.40;100915.38;5042440;28;20029;-62
2022/04/13 05:48:51;;;;;;;3.97;1.30;;;;;;;5.63;46.90;100919.31;5043017;28;20052;-63
2022/04/13 05:51:16;;;;;;;5.93;1.98;;;;;;;5.63;47.16;100906.44;5042802;28;20456;-63
2022/04/13 05:53:42;;;;;;;6.82;1.45;;;;;;;5.78;46.87;100905.00;5042709;28;20026;-63
2022/04/13 05:56:07;;;;;;;4.50;1.63;;;;;;;5.73;46.97;100904.03;5042733;28;20083;-63
2022/04/13 05:58:32;;;;;;;3.58;1.33;;;;;;;5.78;46.86;100900.72;5043060;28;20025;-63
2022/04/13 06:00:58;;;;;;;3.45;1.65;;;;;;;5.88;46.45;100891.44;5044406;28;20029;-63
2022/04/13 06:03:23;;;;;;;7.15;1.67;;;;;;;5.86;46.80;100890.56;5049641;28;20104;-63
2022/04/13 06:05:50;;;;;;;3.42;1.45;;;;;;;5.87;46.78;100889.72;5049242;28;20033;-62
2022/04/13 06:08:16;;;;;;;3.70;1.52;;;;;;;5.83;46.80;100893.94;5049645;28;20026;-62
2022/04/13 06:10:41;;;;;;;4.85;1.10;;;;;;;6.10;46.47;100914.22;5049534;28;20029;-62
2022/04/13 06:13:06;;;;;;;4.35;1.73;;;;;;;6.19;46.19;100871.44;5049632;28;20025;-62
2022/04/13 06:15:32;;;;;;;4.95;1.60;;;;;;;6.13;46.26;100873.91;5049350;28;20156;-62
2022/04/13 06:17:58;;;;;;;5.68;1.63;;;;;;;6.11;46.34;100865.25;5049344;28;20021;-62
2022/04/13 06:20:23;;;;;;;3.03;1.17;;;;;;;6.09;46.53;100866.94;5049384;28;20045;-63
2022/04/13 06:22:49;;;;;;;4.10;1.60;;;;;;;6.13;46.60;100876.47;5049293;28;20025;-62
2022/04/13 06:25:14;;;;;;;6.70;1.95;;;;;;;6.26;46.40;100866.38;5049343;28;20032;-62
2022/04/13 06:27:40;;;;;;;2.35;1.30;;;;;;;6.15;46.51;100867.03;5031490;28;20026;-62
2022/04/13 06:30:07;;;;;;;3.53;1.73;;;;;;;6.24;46.58;100868.94;5049562;28;20028;-61
2022/04/13 06:32:34;;;;;;;6.35;1.50;;;;;;;6.62;45.47;100874.66;5049181;28;20053;-63
2022/04/13 06:35:00;;;;;;;3.80;1.77;;;;;;;6.41;46.08;100864.03;5049355;28;20048;-63
2022/04/13 06:37:25;;;;;;;3.00;2.50;;;;;;;6.39;46.18;100870.88;5049207;28;20021;-63
2022/04/13 06:39:51;;;;;;;6.05;1.52;;;;;;;6.42;46.31;100867.50;5049222;28;20511;-63
2022/04/13 06:42:16;;;;;;;3.10;1.38;;;;;;;6.37;46.55;100861.38;5049114;28;20056;-64
2022/04/13 06:44:41;;;;;;;4.57;1.83;;;;;;;6.40;46.55;100862.31;5049075;28;20033;-63
2022/04/13 06:47:06;;;;;;;5.53;2.05;;;;;;;6.54;46.18;100879.72;5049205;28;20013;-63
2022/04/13 06:49:32;;;;;;;3.65;1.58;;;;;;;6.50;46.16;100863.31;5048953;28;20427;-63
2022/04/13 06:51:57;;;;;;;4.68;2.03;;;;;;;6.62;45.87;100874.66;5049027;28;20105;-63
2022/04/13 06:54:23;;;;;;;3.45;1.52;;;;;;;6.68;46.00;100846.38;5049069;28;20489;-63
2022/04/13 06:56:48;;;;;;;5.70;1.88;;;;;;;6.56;46.04;100857.41;5049080;28;20346;-64
2022/04/13 06:59:13;;;;;;;4.25;1.83;;;;;;;6.61;46.03;100858.34;5031409;28;20495;-64
2022/04/13 07:01:39;;;;;;;7.07;2.00;;;;;;;6.55;46.26;100877.16;5048975;28;20057;-63
2022/04/13 07:04:05;;;;;;;4.82;1.58;;;;;;;6.82;45.59;100873.25;5049193;28;20032;-64
2022/04/13 07:06:30;;;;;;;3.75;1.70;;;;;;;6.89;45.53;100870.75;5049027;28;20022;-64
2022/04/13 07:08:55;;;;;;;4.38;2.00;;;;;;;6.73;46.02;100875.72;5049053;28;20021;-63
2022/04/13 07:11:21;;;;;;;7.05;2.33;;;;;;;6.71;46.30;100892.88;5049059;28;20513;-63
2022/04/13 07:13:46;;;;;;;2.40;1.63;;;;;;;6.84;46.06;100887.91;5045448;28;20033;-64
2022/04/13 07:16:11;;;;;;;7.38;2.33;;;;;;;6.81;46.05;100886.13;5045717;28;20048;-63
2022/04/13 07:18:37;;;;;;;7.28;2.53;;;;;;;6.68;46.23;100867.03;5045876;28;20025;-63
2022/04/13 07:21:02;;;;;;;8.10;2.20;;;;;;;6.90;46.22;100901.75;5045632;28;20112;-62
2022/04/13 07:23:28;;;;;;;7.22;2.90;;;;;;;7.10;45.53;100897.72;5045779;28;20079;-62
2022/04/13 07:25:53;;;;;;;4.55;1.63;;;;;;;7.11;45.56;100900.34;5045675;28;20034;-63
2022/04/13 07:28:20;;;;;;;11.88;2.55;;;;;;;7.02;45.98;100905.38;5045837;28;20047;-62
2022/04/13 07:30:45;;;;;;;5.63;2.17;;;;;;;7.31;45.48;100892.88;5057985;23;20492;-66
2022/04/13 07:33:11;;;;;;;6.90;2.53;;;;;;;7.14;45.81;100900.38;5065563;28;20044;-69
2022/04/13 07:35:36;;;;;;;4.25;1.83;;;;;;;7.36;45.44;100894.63;5065346;28;20032;-68
2022/04/13 07:38:02;;;;;;;7.53;3.22;;;;;;;7.32;45.31;100897.19;5064745;28;20025;-69
2022/04/13 07:40:27;;;;;;;4.88;2.45;;;;;;;7.63;44.67;100896.69;5065143;28;20027;-69
2022/04/13 07:42:52;;;;;;;6.15;2.58;;;;;;;7.49;44.97;100896.50;5065079;28;20107;-68
2022/04/13 07:45:18;;;;;;;6.85;2.38;;;;;;;7.37;45.37;100893.78;5065242;28;20021;-70
2022/04/13 07:47:43;;;;;;;6.88;2.72;;;;;;;7.36;45.32;100895.50;5047006;28;20021;-66
2022/04/13 07:50:12;;;;;;;7.55;2.40;;;;;;;7.60;44.96;100894.09;5065138;28;20469;-65
2022/04/13 07:52:38;;;;;;;4.75;3.15;;;;;;;7.50;45.22;100887.06;5064616;28;20031;-66
2022/04/13 07:55:05;;;;;;;8.00;3.50;;;;;;;7.74;44.56;100888.19;5064897;28;20032;-66
2022/04/13 07:57:30;;;;;;;5.88;2.35;;;;;;;7.53;45.23;100885.38;5064837;28;20076;-65
2022/04/13 07:59:55;;;;;;;5.43;2.13;;;;;;;7.75;44.76;100874.41;5046872;28;20043;-66
2022/04/13 08:02:21;;;;;;;5.35;2.85;;;;;;;7.71;44.73;100851.97;5064793;28;20039;-65
2022/04/13 08:04:47;;;;;;;8.90;3.03;;;;;;;7.78;44.87;100866.72;5065034;28;20040;-66
2022/04/13 08:07:14;;;;;;;7.85;3.38;;;;;;;7.76;44.94;100860.66;5064756;28;20032;-66
2022/04/13 08:09:39;;;;;;;7.88;3.58;;;;;;;7.91;44.57;100845.28;5064515;28;20032;-66
2022/04/13 08:12:05;;;;;;;5.03;2.47;;;;;;;8.17;44.07;100857.59;5046810;28;20021;-65
2022/04/13 08:14:30;;;;;;;8.15;3.15;;;;;;;8.12;44.52;100854.09;5064660;28;20468;-71
2022/04/13 08:16:56;;;;;;;9.82;4.22;;;;;;;8.11;44.42;100862.72;5064349;28;20461;-65
2022/04/13 08:19:22;;;;;;;7.20;3.33;;;;;;;8.43;43.73;100863.84;5064392;28;20040;-67
2022/04/13 08:21:47;;;;;;;9.45;3.38;;;;;;;8.34;43.98;100853.44;5064066;28;20025;-67
2022/04/13 08:24:13;;;;;;;7.22;3.35;;;;;;;8.45;43.56;100853.50;5064342;28;20020;-66
2022/04/13 08:26:39;;;;;;;8.95;4.30;;;;;;;8.34;43.86;100849.09;5064444;28;20025;-65
2022/04/13 08:29:04;;;;;;;14.63;5.18;;;;;;;8.55;43.45;100857.91;5064091;28;20025;-68
2022/04/13 08:31:30;;;;;;;5.47;2.45;;;;;;;8.71;43.29;100845.06;5064149;28;20049;-66
2022/04/13 08:33:55;;;;;;;8.90;2.53;;;;;;;8.58;43.54;100847.59;5064293;28;20052;-68
2022/04/13 08:36:20;;;;;;;5.95;3.30;;;;;;;8.69;43.32;100842.47;5063879;28;20127;-67
2022/04/13 08:38:46;;;;;;;7.90;3.90;;;;;;;8.65;43.66;100822.63;5064295;28;20048;-70
2022/04/13 08:41:47;;;;;;;3.20;2.40;;;;;;;8.97;42.99;100827.13;5063868;28;20041;-68
2022/04/13 08:44:39;;;;;;;11.00;4.78;;;;;;;9.03;43.25;100832.31;5064228;28;20025;-70
2022/04/13 08:47:12;;;;;;;3.45;1.77;;;;;;;9.73;41.23;100799.72;5045973;28;20017;-67
2022/04/13 08:49:39;;;;;;;3.40;2.22;;;;;;;9.74;41.21;100817.00;5063728;28;20036;-66
2022/04/13 08:52:08;;;;;;;8.35;3.28;;;;;;;9.42;42.41;100800.53;5063561;28;20108;-65
2022/04/13 08:54:41;;;;;;;8.32;3.90;;;;;;;9.62;41.75;100813.50;5063870;28;20024;-71
2022/04/13 08:57:11;;;;;;;6.68;2.85;;;;;;;9.83;41.14;100805.75;5063756;28;20021;-67
2022/04/13 08:59:48;;;;;;;12.52;3.88;;;;;;;9.78;41.43;100801.44;5063655;28;20048;-66
2022/04/13 09:02:35;;;;;;;8.52;4.82;;;;;;;9.85;41.30;100807.50;5063908;28;20649;-69
2022/04/13 09:05:01;;;;;;;8.05;3.42;;;;;;;10.13;40.69;100791.94;5063583;28;20090;-65
2022/04/13 09:07:32;;;;;;;8.05;3.88;;;;;;;9.96;41.07;100780.72;5045360;28;20029;-65
2022/04/13 09:10:00;;;;;;;10.57;4.05;;;;;;;10.03;40.79;100792.84;5063466;28;20507;-67
2022/04/13 09:12:30;;;;;;;7.85;4.97;;;;;;;9.90;41.12;100797.16;5062063;28;20021;-70
2022/04/13 09:14:57;;;;;;;10.80;4.50;;;;;;;10.06;40.79;100786.75;5063704;28;20433;-68
2022/04/13 09:17:24;;;;;;;7.20;4.03;;;;;;;10.41;39.81;100778.94;5063365;28;20051;-67
2022/04/13 09:19:50;;;;;;;9.52;3.28;;;;;;;10.29;40.22;100771.16;5063292;28;20025;-66
2022/04/13 09:22:17;;;;;;;8.65;4.18;;;;;;;10.48;39.86;100768.59;5063016;28;20047;-65
2022/04/13 09:24:45;;;;;;;7.47;3.92;;;;;;;10.35;40.38;100758.19;5063374;28;20409;-68
2022/04/13 09:27:11;;;;;;;6.40;3.15;;;;;;;10.50;39.70;100749.53;5063250;28;20025;-68
2022/04/13 09:29:37;;;;;;;8.18;4.43;;;;;;;10.34;40.66;100750.41;5063076;28;20021;-66
2022/04/13 09:32:02;;;;;;;4.85;2.95;;;;;;;10.66;39.88;100742.56;5062700;28;20052;-67
2022/04/13 09:34:28;;;;;;;9.82;5.65;;;;;;;10.73;39.78;100737.34;5063019;28;20028;-65
2022/04/13 09:36:55;;;;;;;8.40;4.47;;;;;;;10.80;40.18;100728.66;5062188;28;20084;-66
2022/04/13 09:39:21;;;;;;;7.30;3.60;;;;;;;11.22;38.80;100733.66;5063018;28;20021;-69
2022/04/13 09:41:47;;;;;;;7.15;3.55;;;;;;;11.51;38.54;100716.13;5045075;28;20013;-66
2022/04/13 09:44:14;;;;;;;7.88;4.60;;;;;;;11.55;38.74;100701.38;5063054;28;20293;-65
2022/04/13 09:46:40;;;;;;;12.45;5.85;;;;;;;11.73;38.32;100709.03;5063164;28;20044;-67
2022/04/13 09:49:16;;;;;;;6.43;3.42;;;;;;;12.26;36.77;100705.97;5062802;28;20021;-65
2022/04/13 09:51:46;;;;;;;5.28;3.28;;;;;;;12.14;37.05;100704.34;5062549;28;20345;-66
2022/04/13 09:54:12;;;;;;;6.70;3.92;;;;;;;12.09;37.18;100695.72;5062876;28;20021;-65
2022/04/13 09:56:43;;;;;;;9.30;5.20;;;;;;;12.03;37.69;100714.84;5061604;28;20047;-68
2022/04/13 09:59:10;;;;;;;7.63;4.47;;;;;;;12.06;37.63;100693.13;5062897;28;20109;-68
2022/04/13 10:01:36;;;;;;;9.63;5.88;;;;;;;12.37;36.92;100713.66;5062704;28;20033;-68
2022/04/13 10:04:07;;;;;;;11.15;5.78;;;;;;;12.44;37.23;100692.75;5062626;28;20024;-68
2022/04/13 10:06:35;;;;;;;8.57;5.22;;;;;;;12.89;36.44;100695.66;5044518;28;20028;-68
2022/04/13 10:09:06;;;;;;;8.75;5.07;;;;;;;13.49;34.67;100689.59;5062539;28;20013;-67
2022/04/13 10:11:31;;;;;;;9.32;4.75;;;;;;;13.61;35.07;100670.31;5062865;28;20052;-66
2022/04/13 10:14:05;;;;;;;13.20;6.32;;;;;;;13.66;34.93;100685.91;5062798;28;20032;-68
2022/04/13 10:16:35;;;;;;;5.20;3.63;;;;;;;14.30;32.64;100682.13;5062587;28;20048;-65
2022/04/13 10:19:01;;;;;;;6.15;4.00;;;;;;;14.13;32.13;100688.53;5062826;28;20031;-66
2022/04/13 10:21:34;;;;;;;5.45;4.40;;;;;;;13.81;32.13;100675.19;5062594;28;20445;-66
2022/04/13 10:23:59;;;;;;;7.35;4.18;;;;;;;13.35;33.14;100666.34;5062876;28;20234;-66
2022/04/13 10:26:24;;;;;;;8.35;4.47;;;;;;;12.75;34.37;100677.63;5044787;28;20017;-67
2022/04/13 10:28:50;;;;;;;13.82;6.43;;;;;;;12.62;34.55;100660.44;5044484;28;20048;-66
2022/04/13 10:31:16;;;;;;;5.70;3.40;;;;;;;12.91;34.13;100650.50;5044124;28;20060;-68
2022/04/13 10:33:49;;;;;;;8.40;4.55;;;;;;;12.66;34.60;100658.63;5062584;28;20033;-68
2022/04/13 10:36:18;;;;;;;7.63;4.82;;;;;;;12.53;35.13;100661.41;5062037;28;20239;-66
2022/04/13 10:38:44;;;;;;;10.23;6.05;;;;;;;12.57;34.49;100652.66;5062442;28;20032;-66
2022/04/13 10:41:15;;;;;;;7.60;4.95;;;;;;;12.34;35.27;100625.19;5062387;28;20021;-66
2022/04/13 10:43:46;;;;;;;7.30;4.00;;;;;;;12.51;35.18;100635.38;5062646;28;20043;-66
2022/04/13 10:46:14;;;;;;;9.00;5.77;;;;;;;12.40;35.29;100626.84;5061211;28;20079;-69
2022/04/13 10:48:43;;;;;;;9.82;4.65;;;;;;;12.55;34.90;100638.81;5064190;28;20285;-69
2022/04/13 10:51:12;;;;;;;9.35;4.13;;;;;;;12.26;35.75;100629.63;5065913;28;20025;-67
2022/04/13 10:54:09;;;;;;;8.32;4.63;;;;;;;12.53;35.32;100593.69;5066416;28;20080;-68
2022/04/13 10:56:39;;;;;;;6.68;3.78;;;;;;;12.58;34.83;100604.03;5049704;28;20136;-66
2022/04/13 10:59:27;;;;;;;10.93;5.65;;;;;;;12.21;35.84;100632.28;5066309;28;20047;-65
2022/04/13 11:01:58;;;;;;;8.38;3.50;;;;;;;12.50;35.24;100614.56;5066086;28;20021;-68
2022/04/13 11:04:27;;;;;;;9.80;5.15;;;;;;;12.43;35.31;100613.78;5066002;28;20031;-68
2022/04/13 11:06:53;;;;;;;3.67;2.72;;;;;;;12.79;34.58;100618.53;5065598;28;20021;-67
2022/04/13 11:09:36;;;;;;;10.73;5.22;;;;;;;12.56;35.22;100621.44;5065768;28;20473;-69
2022/04/13 11:12:03;;;;;;;11.13;5.32;;;;;;;12.52;35.21;100608.44;5065898;28;20474;-69
2022/04/13 11:14:28;;;;;;;13.45;7.38;;;;;;;12.55;35.36;100610.16;5065852;28;20029;-69
2022/04/13 11:17:06;;;;;;;5.70;4.15;;;;;;;12.72;35.18;100601.25;5065712;28;20067;-66
2022/04/13 11:19:32;;;;;;;10.25;6.18;;;;;;;12.55;35.36;100609.28;5065851;28;20021;-68
2022/04/13 11:21:57;;;;;;;10.07;5.80;;;;;;;12.22;36.22;100620.13;5065373;28;20103;-69
2022/04/13 11:24:34;;;;;;;8.70;4.43;;;;;;;12.39;36.08;100612.97;5065625;28;20500;-68
2022/04/13 11:27:00;;;;;;;5.53;3.33;;;;;;;12.85;34.87;100605.41;5065476;28;20028;-66
2022/04/13 11:29:33;;;;;;;5.07;3.17;;;;;;;12.42;35.88;100600.78;5065486;28;20025;-67